• Join FlightAware (Why Join?)
  • Login
  • US Flag 
09:08AM EST


 

Airport Tracker/Info


-or-


 

Live Flight TrackerFlight Track Log ✈ VH-VJE ✈ 09-Apr-2013 ✈ YCCA / CCL - YBBN / BNE

Flight Track Log - Related Links

Times and Time Zones

All times are in EDT time to prevent confusion due to time zone crossing. See the VH-VJE flight status page for this flight to view local times or setup timezone preferences in your user account.

Time Position Orientation Groundspeed Altitude Reporting Facility
EDT Latitude Longitude Course Direction KTS MPH feet Rate Location/Type
02:24AM -26.7765 150.5937 97° East 131 151 3,200  Level Aus ATC (RADAR)
02:24AM -26.7797 150.6222 97° East 105 121 4,400 1,500 Climbing Aus ATC (RADAR)
02:25AM -26.7807 150.6472 92° East 117 135 5,500 1,260 Climbing Aus ATC (RADAR)
02:26AM -26.7922 150.6944 105° East 139 160 6,800 1,020 Climbing Aus ATC (RADAR)
02:27AM -26.7958 150.7046 112° Southeast 141 162 7,000 960 Climbing Aus ATC (RADAR)
02:27AM -26.8024 150.7339 104° East 160 184 7,600 780 Climbing Aus ATC (RADAR)
02:28AM -26.8154 150.7840 106° East 186 214 8,200 600 Climbing Aus ATC (RADAR)
02:29AM -26.8252 150.8164 109° East 187 215 8,500 540 Climbing Aus ATC (RADAR)
02:29AM -26.8390 150.8643 108° East 194 223 9,000 300 Climbing Aus ATC (RADAR)
02:30AM -26.8522 150.9185 105° East 214 246 9,000 -60 Level Aus ATC (RADAR)
02:32AM -26.8733 151.0053 105° East 214 246 8,900  Descending Aus ATC (RADAR)
02:32AM -26.8774 151.0211 106° East 212 244 9,000 120 Climbing Aus ATC (RADAR)
02:32AM -26.8872 151.0590 106° East 213 245 9,000 60 Level Aus ATC (RADAR)
02:33AM -26.9020 151.1121 107° East 213 245 9,100 60 Climbing Aus ATC (RADAR)
02:34AM -26.9135 151.1506 109° East 222 255 9,100 -120 Level Aus ATC (RADAR)
02:35AM -26.9299 151.2126 107° East 225 259 9,000 -120 Descending Aus ATC (RADAR)
02:35AM -26.9427 151.2511 110° East 225 259 9,000 -120 Level Aus ATC (RADAR)
02:36AM -26.9588 151.2941 113° Southeast 223 257 8,900 -60 Descending Aus ATC (RADAR)
02:38AM -26.9740 151.3252 119° Southeast 226 260 8,900 60 Level Aus ATC (RADAR)
02:39AM -27.0202 151.4325 116° Southeast 217 250 9,100 60 Climbing Aus ATC (RADAR)
02:40AM -27.0652 151.5300 117° Southeast 225 259 9,000 -120 Descending Aus ATC (RADAR)
02:40AM -27.0716 151.5462 114° Southeast 225 259 9,000  Level Aus ATC (RADAR)
02:41AM -27.0860 151.6040 106° East 8,800  Descending FlightAware
02:41AM -27.0872 151.6078 106° East 221 254 9,000 180 Climbing Aus ATC (RADAR)
02:41AM -27.0920 151.6320 104° East 8,900  Descending FlightAware
02:42AM -27.0997 151.6637 104° East 219 252 9,000  Climbing Aus ATC (RADAR)
02:42AM -27.0990 151.6630 104° East 8,800 -60 Descending FlightAware
02:42AM -27.1070 151.6940 106° East 8,900  Climbing FlightAware
02:43AM -27.1220 151.7500 107° East 8,800  Descending FlightAware
02:44AM -27.1300 151.7790 107° East 8,800 120 Level FlightAware
02:44AM -27.1355 151.8029 107° East 224 258 8,900  Climbing Aus ATC (RADAR)
02:44AM -27.1360 151.8070 107° East 8,800 -120 Descending FlightAware
02:44AM -27.1390 151.8240 101° East 8,900  Climbing FlightAware
02:45AM -27.1480 151.8570 107° East 8,800 -120 Descending FlightAware
02:45AM -27.1540 151.8820 105° East 234 269 8,800 120 Level FlightAware
02:45AM -27.1589 151.9099 105° East 218 251 8,900  Climbing Aus ATC (RADAR)
02:46AM -27.1580 151.9200 105° East 8,700  Descending FlightAware
02:46AM -27.1590 151.9310 96° East 8,700 120 Level FlightAware
02:46AM -27.1590 151.9540 90° East 8,700 180 Level FlightAware
02:47AM -27.1600 151.9830 92° East 8,700 240 Level FlightAware
02:47AM -27.1602 152.0139 92° East 219 252 8,900 120 Climbing Aus ATC (RADAR)
02:47AM -27.1620 152.0170 92° East 8,800 60 Descending FlightAware
02:48AM -27.1680 152.0510 101° East 8,800 120 Level FlightAware
02:48AM -27.1720 152.0770 100° East 8,900 180 Climbing FlightAware
02:48AM -27.1750 152.0940 101° East 8,900 120 Level FlightAware
02:49AM -27.1792 152.1191 101° East 216 249 9,000 -420 Climbing Aus ATC (RADAR)
02:49AM -27.1810 152.1280 101° East 8,800 -480 Descending FlightAware
02:49AM -27.1870 152.1570 103° East 8,800 -420 Level FlightAware
02:50AM -27.1940 152.1910 103° East 8,800 -480 Level FlightAware
02:50AM -27.1990 152.2180 102° East 8,700 -480 Descending FlightAware
02:50AM -27.2030 152.2360 104° East 8,800 -480 Climbing FlightAware
02:51AM -27.2100 152.2690 103° East 8,800 -540 Level FlightAware
02:51AM -27.2160 152.2970 104° East 8,800 -540 Level FlightAware
02:52AM -27.2220 152.3310 101° East 8,900 -600 Climbing FlightAware
02:52AM -27.2250 152.3480 101° East 8,900 -660 Level FlightAware
02:52AM -27.2310 152.3770 103° East 8,900 -660 Level FlightAware
02:53AM -27.2400 152.4110 107° East 8,800 -720 Descending FlightAware
02:53AM -27.2470 152.4390 106° East 8,600 -720 Descending FlightAware
02:54AM -27.2510 152.4740 97° East 8,200 -780 Descending FlightAware
02:54AM -27.2530 152.4900 98° East 8,000 -780 Descending FlightAware
02:55AM -27.2590 152.5230 102° East 7,600 -780 Descending FlightAware
02:55AM -27.2650 152.5500 104° East 7,300 -720 Descending FlightAware
02:55AM -27.2710 152.5790 103° East 6,900 -720 Descending FlightAware
02:56AM -27.2750 152.6060 99° East 6,600 -720 Descending FlightAware
02:56AM -27.2780 152.6380 96° East 6,300 -720 Descending FlightAware
02:57AM -27.2800 152.6720 94° East 5,900 -780 Descending FlightAware
02:57AM -27.2830 152.6940 99° East 5,600 -720 Descending FlightAware
02:58AM -27.2850 152.7300 94° East 5,200 -720 Descending FlightAware
02:58AM -27.2850 152.7450 90° East 5,000 -660 Descending FlightAware
02:58AM -27.2860 152.7650 93° East 4,800 -600 Descending FlightAware
02:59AM -27.2850 152.7860 87° East 215 247 4,600 -600 Descending FlightAware
02:59AM -27.2840 152.8160 88° East 213 245 4,300 4,200 Descending FlightAware
03:00AM -27.2547 152.5025 88° East 212 244 8,000 -600 Climbing Aus ATC (RADAR)
03:00AM -27.2830 152.8390 88° East 4,200 -2,880 Descending FlightAware
03:00AM -27.2820 152.8540 86° East 4,000 -660 Descending FlightAware
03:00AM -27.2810 152.8860 88° East 3,700 -600 Descending FlightAware
03:01AM -27.2810 152.9090 90° East 3,500 -600 Descending FlightAware
03:01AM -27.2810 152.9360 90° East 210 242 3,200 -840 Descending FlightAware
03:02AM -27.2810 152.9600 90° East 209 241 2,800 -960 Descending FlightAware
03:02AM -27.2800 152.9800 87° East 205 236 2,500 -720 Descending FlightAware
03:02AM -27.2803 153.0054 87° East 181 208 2,300 -960 Descending Aus ATC (RADAR)
03:02AM -27.2800 153.0040 87° East 202 232 2,100 -1,380 Descending FlightAware
03:03AM -27.2810 153.0240 93° East 197 227 1,800 -720 Descending FlightAware
03:03AM -27.2810 153.0460 90° East 183 211 1,600 -480 Descending FlightAware
03:04AM -27.2840 153.0690 98° East 162 186 1,400 -420 Descending FlightAware
03:04AM -27.2920 153.0760 142° Southeast 159 183 1,300 -480 Descending FlightAware
03:04AM -27.3060 153.0860 148° Southeast 164 189 1,100 -600 Descending FlightAware
03:05AM -27.3230 153.0980 148° Southeast 159 183 800 -660 Descending FlightAware
03:05AM -27.3340 153.1080 141° Southeast 134 154 500 -600 Descending FlightAware
03:06AM -27.3481 153.1181 141° Southeast 117 135 300 -840 Descending Aus ATC (RADAR)
03:06AM -27.3480 153.1180 141° Southeast 132 152 100 -6,000 Descending FlightAware
03:06AM -27.3600 153.1270 146° Southeast 100 115 -240 Descending FlightAware
03:07AM -27.3660 153.1320 143° Southeast 39 45  Level FlightAware
03:07AM -27.3690 153.1340 149° Southeast 21 24  Level FlightAware
03:08AM -27.3710 153.1330 204° Southwest 17 20  Level FlightAware
03:08AM -27.3730 153.1310 222° Southwest 24 28  Level FlightAware
03:08AM -27.3760 153.1300 196° South 29 33  Level FlightAware
03:09AM -27.3790 153.1280 211° Southwest 22 25  Level FlightAware